Impacts TAF Board INFO
FOR SITUATIONAL AWARENESS. NOT TO BE USED FOR FLIGHT PLANNING PURPOSES.
IDs:

KTPA - Tampa Intl Arpt, FL, US

Issued at 2320 UTC 16 Dec 2017
Updated at 0223 UTC 17 Dec 2017
Potential Impact None Slight Moderate High
Time0153Z 17/03Z 17/04Z 17/05Z 17/06Z 17/07Z 17/08Z 17/09Z 17/10Z 17/11Z 17/12Z 17/13Z 17/14Z 17/15Z>>
Type OBS PRVL PRVL PRVL PRVL PRVL PRVL PRVL PRVL PRVL PRVL PRVL PRVL PRVL
VIS 10 >6 >6 >6 >6 >6 >6 >6 >6 >6 >6 >6 >6 >6
CIG -- -- -- -- -- -- -- -- -- -- -- -- -- --
Cover FEW SCT SCT SCT SCT SCT SCT SCT SCT SCT SCT SCT SCT SCT
FltCat VFR VFR VFR VFR VFR VFR VFR VFR VFR VFR VFR VFR VFR VFR
WX -- -- -- -- -- -- -- -- -- -- -- -- -- --
WDir 50 70 70 70 70 70 70 70 70 70 70 70 120 120
WSpd 4 5 5 5 5 5 5 5 5 5 5 5 6 6
WGst -- -- -- -- -- -- -- -- -- -- -- -- -- --

Raw TAF
KTPA 162320Z 1700/1806 07005KT P6SM SCT250
  FM171400 12006KT P6SM FEW025 SCT250
  FM171800 16007KT P6SM FEW030 SCT250
  FM172100 23006KT P6SM SCT250
  FM180100 VRB03KT P6SM SCT250


Raw METAR
KTPA 170153Z 05004KT 10SM FEW250 19/12 A3025 RMK AO2 SLP243 T01940122
KTPA 170053Z 04004KT 10SM CLR 21/13 A3024 RMK AO2 SLP239 T02060128
KTPA 162353Z 04004KT 10SM SCT250 22/13 A3022 RMK AO2 SLP234 T02170128 10256 20211 53015

METAR Board
Radar Display
Forecast Discussion

FOR SITUATIONAL AWARENESS. NOT TO BE USED FOR FLIGHT PLANNING PURPOSES.